Time;durP1;ratioP1;P1;durP2;ratioP2;P2;SDS_P1;SDS_P2;PMS_P1;PMS_P2;Temp;Humidity;BMP_temperature;BMP_pressure;BME280_temperature;BME280_humidity;BME280_pressure;Samples;Min_cycle;Max_cycle;Signal;HPM_P1;HPM_P2
2022/07/14 00:01:42;;;;;;;14.95;8.20;;;;;;;24.08;59.23;99476.03;5076081;28;20082;-80
2022/07/14 00:04:08;;;;;;;10.98;7.70;;;;;;;24.04;59.47;99477.50;5041889;28;20080;-80
2022/07/14 00:06:34;;;;;;;11.90;7.57;;;;;;;24.04;59.70;99477.50;5041802;28;20417;-80
2022/07/14 00:09:01;;;;;;;12.00;7.60;;;;;;;23.98;59.53;99472.84;5076623;28;20048;-80
2022/07/14 00:11:27;;;;;;;15.02;8.25;;;;;;;24.05;59.62;99478.34;5057997;28;20045;-80
2022/07/14 00:13:53;;;;;;;14.48;8.23;;;;;;;24.01;59.39;99471.59;5076418;28;20051;-81
2022/07/14 00:16:19;;;;;;;12.00;7.90;;;;;;;23.96;59.69;99464.88;5041452;28;20044;-80
2022/07/14 00:18:44;;;;;;;14.23;7.72;;;;;;;24.07;59.76;99477.09;5041197;28;20059;-80
2022/07/14 00:21:14;;;;;;;11.63;7.70;;;;;;;24.13;59.47;99481.72;5057967;28;20040;-81
2022/07/14 00:23:41;;;;;;;16.23;7.63;;;;;;;24.18;59.46;99487.41;5040978;28;20059;-81
2022/07/14 00:26:07;;;;;;;12.70;7.05;;;;;;;24.16;58.94;99483.19;5040949;28;20044;-81
2022/07/14 00:28:34;;;;;;;11.98;7.22;;;;;;;24.13;58.99;99483.59;5075532;28;20105;-80
2022/07/14 00:31:03;;;;;;;9.32;6.90;;;;;;;24.19;58.92;99485.50;5075480;28;20051;-80
2022/07/14 00:33:30;;;;;;;17.85;7.30;;;;;;;24.16;58.73;99475.00;5039784;28;20047;-79
2022/07/14 00:35:56;;;;;;;8.75;6.75;;;;;;;24.19;58.69;99480.88;5057676;28;20513;-79
2022/07/14 00:38:23;;;;;;;10.45;6.78;;;;;;;24.21;58.62;99472.47;5040552;28;20551;-80
2022/07/14 00:40:50;;;;;;;11.07;7.00;;;;;;;24.23;58.19;99473.13;5057379;28;20082;-79
2022/07/14 00:43:16;;;;;;;17.00;7.00;;;;;;;24.27;58.19;99479.84;5040763;28;20036;-79
2022/07/14 00:45:42;;;;;;;9.48;6.60;;;;;;;24.28;57.86;99478.78;5075196;28;20506;-80
2022/07/14 00:48:08;;;;;;;10.55;6.43;;;;;;;24.22;57.91;99476.88;5040516;28;20039;-80
2022/07/14 00:50:34;;;;;;;7.25;6.43;;;;;;;24.21;57.87;99483.41;5040557;28;20068;-80
2022/07/14 00:53:07;;;;;;;7.38;6.38;;;;;;;24.11;58.06;99483.81;5056891;28;20040;-80
2022/07/14 00:55:33;;;;;;;7.40;6.10;;;;;;;24.07;58.01;99471.63;5040855;28;20048;-80
2022/07/14 00:57:59;;;;;;;7.20;6.13;;;;;;;24.09;58.23;99474.13;5040379;28;20414;-80
2022/07/14 01:00:25;;;;;;;7.28;6.15;;;;;;;24.07;58.04;99481.69;5040443;28;20040;-79
2022/07/14 01:02:51;;;;;;;9.13;6.30;;;;;;;24.10;57.93;99486.75;5040383;28;20052;-79
2022/07/14 01:05:17;;;;;;;9.20;6.82;;;;;;;24.03;57.93;99474.97;5040578;28;20041;-82
2022/07/14 01:07:43;;;;;;;7.13;6.18;;;;;;;24.18;57.66;99483.81;5057012;28;20048;-81
2022/07/14 01:10:10;;;;;;;10.60;7.20;;;;;;;24.25;57.65;99487.41;5041062;28;20076;-81
2022/07/14 01:12:37;;;;;;;8.20;6.22;;;;;;;24.27;57.04;99474.38;5075123;28;20537;-80
2022/07/14 01:15:04;;;;;;;6.68;6.00;;;;;;;24.36;57.11;99475.84;5023925;28;20332;-79
2022/07/14 01:17:31;;;;;;;10.73;6.20;;;;;;;24.47;57.13;99482.63;5023802;28;20051;-79
2022/07/14 01:19:57;;;;;;;8.52;5.80;;;;;;;24.41;56.97;99473.38;5056629;28;20041;-79
2022/07/14 01:22:23;;;;;;;7.15;6.45;;;;;;;24.54;56.84;99474.44;5073131;28;20094;-81
2022/07/14 01:24:49;;;;;;;9.60;5.78;;;;;;;24.58;56.67;99476.53;5039903;28;20482;-79
2022/07/14 01:27:14;;;;;;;9.40;7.00;;;;;;;24.61;56.51;99473.38;5056667;28;20143;-80
2022/07/14 01:29:41;;;;;;;8.50;6.05;;;;;;;24.72;56.40;99485.56;5040093;28;20055;-79
2022/07/14 01:32:07;;;;;;;10.95;6.30;;;;;;;24.69;56.25;99491.47;5056558;28;20052;-79
2022/07/14 01:34:33;;;;;;;12.85;6.60;;;;;;;24.69;56.13;99481.34;5056316;28;20384;-81
2022/07/14 01:36:59;;;;;;;7.93;6.13;;;;;;;24.67;56.41;99488.94;5055928;28;20131;-80
2022/07/14 01:39:25;;;;;;;9.57;6.55;;;;;;;24.71;56.08;99489.34;5052622;28;20495;-79
2022/07/14 01:41:50;;;;;;;8.48;6.40;;;;;;;24.73;56.15;99498.19;5053018;28;20399;-79
2022/07/14 01:44:17;;;;;;;11.82;7.20;;;;;;;24.73;56.09;99489.97;5035751;28;20526;-79
2022/07/14 01:46:43;;;;;;;19.05;11.55;;;;;;;24.76;56.37;99492.31;5019675;28;20135;-80
2022/07/14 01:49:09;;;;;;;25.80;11.40;;;;;;;24.72;56.26;99491.03;5035744;28;20595;-80
2022/07/14 01:51:35;;;;;;;25.63;11.18;;;;;;;24.64;56.64;99478.44;5019686;28;20144;-79
2022/07/14 01:54:05;;;;;;;20.92;8.60;;;;;;;24.76;56.49;99486.00;5052783;28;20446;-80
2022/07/14 01:56:42;;;;;;;12.27;9.00;;;;;;;24.72;56.33;99480.09;5052825;28;20052;-79
2022/07/14 01:59:10;;;;;;;14.47;8.80;;;;;;;24.80;56.30;99490.00;5052713;28;20430;-79
2022/07/14 02:01:40;;;;;;;23.90;8.68;;;;;;;24.79;56.24;99480.94;5052662;28;20136;-79
2022/07/14 02:04:12;;;;;;;22.30;9.15;;;;;;;24.87;55.83;99482.63;5052434;28;20051;-79
2022/07/14 02:06:45;;;;;;;30.92;9.07;;;;;;;24.92;55.94;99485.53;5019279;28;20033;-79
2022/07/14 02:09:20;;;;;;;23.77;7.53;;;;;;;24.91;55.78;99481.97;5036917;28;20044;-81
2022/07/14 02:14:32;;;;;;;14.52;7.13;;;;;;;24.99;55.81;99491.84;5052068;28;20487;-80
2022/07/14 02:16:58;;;;;;;14.93;7.63;;;;;;;25.02;55.82;99496.06;5051804;28;20460;-80
2022/07/14 02:19:24;;;;;;;15.57;7.22;;;;;;;24.99;55.66;99497.31;5052159;28;20049;-78
2022/07/14 02:21:54;;;;;;;9.82;6.45;;;;;;;25.02;55.55;99496.91;5052138;28;20091;-79
2022/07/14 02:24:21;;;;;;;10.75;6.57;;;;;;;24.89;55.88;99503.22;5051940;28;20051;-79
2022/07/14 02:26:51;;;;;;;10.50;7.30;;;;;;;24.96;55.55;99495.84;5035060;28;20040;-78
2022/07/14 02:29:19;;;;;;;15.82;8.05;;;;;;;25.13;55.58;99500.91;5051955;28;20068;-78
2022/07/14 02:31:46;;;;;;;13.35;6.78;;;;;;;25.23;54.99;99497.72;5035095;28;20049;-77
2022/07/14 02:34:14;;;;;;;16.27;7.47;;;;;;;25.32;55.12;99507.41;5035146;28;20037;-78
2022/07/14 02:36:41;;;;;;;10.55;6.78;;;;;;;25.31;54.75;99500.22;5052859;28;20051;-80
2022/07/14 02:39:07;;;;;;;10.27;6.93;;;;;;;25.35;54.40;99507.81;5051926;28;20485;-80
2022/07/14 02:41:33;;;;;;;15.63;7.78;;;;;;;25.38;54.52;99507.34;5052710;28;20056;-79
2022/07/14 02:43:59;;;;;;;12.82;7.30;;;;;;;25.27;54.59;99504.44;5051956;28;20041;-78
2022/07/14 02:46:26;;;;;;;19.05;7.50;;;;;;;25.31;54.65;99511.16;5051439;28;20392;-81
2022/07/14 02:48:52;;;;;;;17.02;7.82;;;;;;;25.43;54.50;99509.47;5034975;28;20037;-80
2022/07/14 02:51:19;;;;;;;14.75;8.88;;;;;;;25.57;54.43;99510.25;5034830;28;20041;-79
2022/07/14 02:53:45;;;;;;;17.15;8.80;;;;;;;25.69;54.20;99522.22;5051465;28;20045;-80
2022/07/14 02:56:12;;;;;;;11.77;8.90;;;;;;;25.81;53.84;99512.31;5050607;28;20045;-80
2022/07/14 02:58:39;;;;;;;14.18;9.15;;;;;;;25.98;53.40;99500.84;5018633;28;20572;-78
2022/07/14 03:01:07;;;;;;;12.30;8.57;;;;;;;26.09;53.09;99511.09;5034726;28;20044;-79
2022/07/14 03:03:35;;;;;;;12.93;9.95;;;;;;;26.19;52.88;99506.00;5051599;28;20045;-81
2022/07/14 03:06:11;;;;;;;10.45;8.98;;;;;;;26.17;52.63;99499.88;5035010;28;20041;-80
2022/07/14 03:08:38;;;;;;;14.50;9.20;;;;;;;26.16;52.73;99514.66;5034685;28;20044;-85
2022/07/14 03:11:04;;;;;;;20.10;10.23;;;;;;;26.15;52.50;99529.41;5021525;28;20041;-80
2022/07/14 03:13:31;;;;;;;19.55;10.40;;;;;;;26.22;52.15;99527.47;5071362;28;20135;-79
2022/07/14 03:15:59;;;;;;;17.30;10.80;;;;;;;26.29;52.00;99520.06;5052545;28;20128;-81
2022/07/14 03:18:25;;;;;;;19.30;10.38;;;;;;;26.36;51.82;99520.81;5034657;28;20064;-82
2022/07/14 03:20:53;;;;;;;14.88;10.30;;;;;;;26.28;52.05;99512.03;5050765;28;20047;-82
2022/07/14 03:23:20;;;;;;;14.30;9.10;;;;;;;26.31;51.44;99523.41;5051246;28;20037;-82
2022/07/14 03:25:46;;;;;;;14.75;9.10;;;;;;;26.36;51.38;99515.34;5051227;28;20081;-82
2022/07/14 03:28:13;;;;;;;19.95;8.57;;;;;;;26.43;51.82;99520.78;5051266;28;20045;-84
2022/07/14 03:30:41;;;;;;;14.00;7.72;;;;;;;26.53;51.62;99512.13;5018663;28;20045;-77
2022/07/14 03:33:10;;;;;;;13.75;8.45;;;;;;;26.64;51.50;99527.84;5051447;28;20045;-78
2022/07/14 03:35:39;;;;;;;17.85;8.15;;;;;;;26.69;51.47;99532.66;5034212;28;20045;-81
2022/07/14 03:38:06;;;;;;;16.17;8.23;;;;;;;26.77;51.16;99522.25;5018468;28;20102;-84
2022/07/14 03:40:34;;;;;;;12.90;7.28;;;;;;;26.81;50.55;99537.19;5034517;28;20453;-79
2022/07/14 03:43:01;;;;;;;11.07;7.43;;;;;;;26.78;50.85;99534.91;5051146;28;20079;-81
2022/07/14 03:45:28;;;;;;;13.68;7.47;;;;;;;26.80;50.96;99532.78;5018086;28;20045;-78
2022/07/14 03:47:53;;;;;;;9.63;7.15;;;;;;;26.80;50.86;99538.25;5051016;28;20041;-78
2022/07/14 03:50:20;;;;;;;12.52;6.72;;;;;;;26.87;50.95;99539.03;5033983;28;20056;-80
2022/07/14 03:52:46;;;;;;;10.85;7.40;;;;;;;26.84;50.63;99517.53;5051962;28;20075;-85
2022/07/14 03:55:13;;;;;;;11.98;7.10;;;;;;;26.77;50.95;99522.25;5034499;28;20097;-87
2022/07/14 03:57:39;;;;;;;13.27;8.13;;;;;;;26.61;51.67;99525.56;5034297;28;20051;-83
2022/07/14 04:00:07;;;;;;;10.23;7.80;;;;;;;26.83;51.01;99526.00;5067599;28;20045;-79
2022/07/14 04:02:42;;;;;;;14.05;8.35;;;;;;;26.97;50.30;99515.75;5051197;28;20534;-80
2022/07/14 04:05:13;;;;;;;16.13;7.97;;;;;;;27.05;50.16;99508.09;5050412;28;20039;-81
2022/07/14 04:07:39;;;;;;;15.73;8.82;;;;;;;27.23;50.16;99507.31;5053015;28;20041;-80
2022/07/14 04:10:08;;;;;;;21.58;8.57;;;;;;;27.38;49.96;99522.53;5056814;28;20094;-81
2022/07/14 04:12:34;;;;;;;10.45;8.05;;;;;;;27.35;49.55;99524.69;5068298;28;20040;-78
2022/07/14 04:15:00;;;;;;;24.25;8.57;;;;;;;27.32;49.63;99524.31;5054594;28;20152;-80
2022/07/14 04:17:26;;;;;;;15.73;8.63;;;;;;;27.39;49.68;99516.84;5038202;28;20041;-84
2022/07/14 04:19:55;;;;;;;15.60;7.30;;;;;;;27.42;49.36;99519.13;5054112;28;20508;-78
2022/07/14 04:22:21;;;;;;;11.82;7.82;;;;;;;27.59;49.63;99531.16;5054188;28;20396;-78
2022/07/14 04:24:47;;;;;;;14.93;7.72;;;;;;;27.72;49.80;99519.22;5038112;28;20045;-77
2022/07/14 04:27:13;;;;;;;15.00;7.85;;;;;;;27.89;49.98;99524.94;5054165;28;20048;-77
2022/07/14 04:29:39;;;;;;;12.80;8.30;;;;;;;27.95;49.17;99523.19;5053735;28;20037;-77
2022/07/14 04:32:05;;;;;;;11.77;8.30;;;;;;;27.96;49.28;99522.09;5037179;28;20052;-76
2022/07/14 04:34:31;;;;;;;13.05;7.85;;;;;;;27.88;49.62;99517.75;5054092;28;20063;-78
2022/07/14 04:36:57;;;;;;;13.60;8.25;;;;;;;27.95;49.76;99513.03;5054262;28;20551;-76
2022/07/14 04:39:23;;;;;;;11.60;7.95;;;;;;;28.02;49.58;99512.91;5053765;28;20156;-77
2022/07/14 04:41:50;;;;;;;15.65;8.38;;;;;;;28.12;49.35;99510.44;5054093;28;20063;-76
2022/07/14 04:44:16;;;;;;;14.75;8.40;;;;;;;28.24;49.27;99505.81;5053407;28;20412;-75
2022/07/14 04:46:44;;;;;;;15.82;8.30;;;;;;;28.30;49.42;99499.41;5053645;28;20522;-76
2022/07/14 04:52:02;;;;;;;11.68;8.38;;;;;;;28.45;49.22;99507.25;5037320;28;20136;-76
2022/07/14 04:54:35;;;;;;;11.98;8.55;;;;;;;28.56;49.06;99505.59;5021008;28;20590;-78
2022/07/14 04:57:10;;;;;;;16.80;8.32;;;;;;;28.63;48.73;99503.59;5037669;28;20453;-78
2022/07/14 04:59:41;;;;;;;13.98;7.53;;;;;;;28.54;48.74;99499.50;5038629;28;20522;-78
2022/07/14 05:02:08;;;;;;;11.93;6.97;;;;;;;28.43;48.63;99509.38;5036985;28;20086;-79
2022/07/14 05:04:34;;;;;;;11.95;6.35;;;;;;;28.42;47.29;99502.22;5036821;28;20110;-77
2022/07/14 05:07:03;;;;;;;17.25;6.50;;;;;;;28.36;46.65;99502.28;5020533;28;20044;-78
2022/07/14 05:09:33;;;;;;;15.95;6.30;;;;;;;28.45;46.54;99488.00;5053213;28;20045;-77
2022/07/14 05:12:00;;;;;;;8.48;6.32;;;;;;;28.67;46.26;99481.94;5037075;28;20587;-76
2022/07/14 05:14:29;;;;;;;12.20;6.97;;;;;;;28.71;46.31;99494.97;5053297;28;20041;-76
2022/07/14 05:16:55;;;;;;;8.98;5.90;;;;;;;28.75;45.60;99495.34;5053142;28;20060;-77
2022/07/14 05:19:21;;;;;;;8.82;6.90;;;;;;;28.96;45.90;99486.50;5035559;28;20049;-79
2022/07/14 05:21:47;;;;;;;11.95;6.03;;;;;;;29.08;45.72;99482.97;5036185;28;20044;-77
2022/07/14 05:24:13;;;;;;;10.30;6.35;;;;;;;29.19;45.52;99487.63;5053323;28;20523;-76
2022/07/14 05:26:40;;;;;;;17.20;6.47;;;;;;;29.17;46.06;99481.50;5054579;28;20044;-77
2022/07/14 05:29:06;;;;;;;8.77;6.35;;;;;;;29.20;45.85;99481.03;5052856;28;20037;-78
2022/07/14 05:31:32;;;;;;;8.05;5.95;;;;;;;29.21;45.80;99483.53;5019918;28;20071;-78
2022/07/14 05:33:59;;;;;;;6.57;5.72;;;;;;;29.37;45.41;99470.94;5019867;28;20064;-79
2022/07/14 05:36:25;;;;;;;9.98;6.18;;;;;;;29.55;45.44;99469.09;5052705;28;20037;-77
2022/07/14 05:38:52;;;;;;;7.57;6.32;;;;;;;29.57;45.14;99465.03;5068711;28;20070;-78
2022/07/14 05:41:19;;;;;;;7.10;5.97;;;;;;;29.63;45.34;99464.06;5056508;28;20040;-77
2022/07/14 05:43:47;;;;;;;9.70;6.60;;;;;;;29.98;45.02;99463.13;5056229;28;20082;-75
2022/07/14 05:46:14;;;;;;;10.43;5.78;;;;;;;30.26;43.84;99472.47;5056233;28;20048;-78
2022/07/14 05:48:41;;;;;;;10.48;6.18;;;;;;;30.43;43.71;99462.31;4995451;28;20049;-78
2022/07/14 05:51:09;;;;;;;6.47;5.72;;;;;;;30.86;43.49;99460.81;4995947;28;20056;-77
2022/07/14 05:53:36;;;;;;;11.00;5.90;;;;;;;30.56;43.19;99448.16;4995772;28;20045;-78
2022/07/14 05:56:04;;;;;;;7.72;5.72;;;;;;;30.93;42.79;99451.28;5011940;28;20381;-77
2022/07/14 05:58:30;;;;;;;7.13;5.43;;;;;;;31.40;42.09;99461.03;4995799;28;20623;-78
2022/07/14 06:00:56;;;;;;;14.73;5.70;;;;;;;31.48;41.66;99473.56;4995492;28;20132;-77
2022/07/14 06:03:22;;;;;;;12.23;5.90;;;;;;;31.57;41.26;99461.00;4995531;28;20056;-77
2022/07/14 06:05:48;;;;;;;7.38;5.57;;;;;;;31.73;41.32;99459.25;4995724;28;20433;-80
2022/07/14 06:08:14;;;;;;;8.23;5.40;;;;;;;32.02;40.87;99457.97;4995423;28;20045;-78
2022/07/14 06:10:41;;;;;;;11.52;5.85;;;;;;;31.31;41.55;99463.44;4995757;28;20120;-77
2022/07/14 06:13:08;;;;;;;7.93;5.80;;;;;;;31.36;42.12;99465.41;4995410;28;20148;-82
2022/07/14 06:15:35;;;;;;;8.20;6.13;;;;;;;31.89;41.21;99452.81;4995618;28;20472;-77
2022/07/14 06:18:01;;;;;;;11.00;5.53;;;;;;;31.97;40.58;99455.16;4978976;28;20041;-76
2022/07/14 06:20:31;;;;;;;10.13;5.63;;;;;;;31.59;41.79;99470.69;4979343;28;20548;-78
2022/07/14 06:22:57;;;;;;;9.52;5.50;;;;;;;31.59;41.65;99459.63;4997374;28;20057;-79
2022/07/14 06:25:23;;;;;;;14.45;5.68;;;;;;;31.50;41.91;99449.31;5017343;28;20414;-77
2022/07/14 06:27:49;;;;;;;6.13;5.53;;;;;;;31.35;42.36;99450.78;5055149;28;20045;-78
2022/07/14 06:30:15;;;;;;;8.57;6.05;;;;;;;31.28;42.84;99447.34;5021404;28;20055;-77
2022/07/14 06:32:41;;;;;;;11.25;5.88;;;;;;;31.13;43.00;99445.19;5072894;28;20041;-76
2022/07/14 06:35:11;;;;;;;9.98;6.20;;;;;;;31.05;43.41;99428.25;5038958;28;20044;-78
2022/07/14 06:37:38;;;;;;;9.67;5.53;;;;;;;30.81;43.60;99430.38;5037779;28;20066;-77
2022/07/14 06:40:06;;;;;;;12.50;6.00;;;;;;;30.62;44.40;99444.41;5054576;28;20086;-77
2022/07/14 06:42:36;;;;;;;9.60;6.00;;;;;;;30.38;44.67;99442.91;5038023;28;20042;-78
2022/07/14 06:45:21;;;;;;;11.13;6.22;;;;;;;30.22;45.37;99433.53;5054683;28;20101;-77
2022/07/14 06:47:49;;;;;;;12.93;6.30;;;;;;;30.10;45.33;99433.56;5054406;28;20040;-76
2022/07/14 06:50:15;;;;;;;7.93;5.47;;;;;;;30.28;45.23;99421.50;5054250;28;20044;-77
2022/07/14 06:52:41;;;;;;;6.28;5.68;;;;;;;30.72;44.41;99419.72;5038356;28;20449;-77
2022/07/14 06:55:07;;;;;;;11.93;6.10;;;;;;;30.90;44.20;99406.78;5071122;28;20045;-79
2022/07/14 06:57:33;;;;;;;7.13;5.80;;;;;;;30.86;44.55;99411.13;5072132;28;20159;-78
2022/07/14 06:59:59;;;;;;;9.40;5.78;;;;;;;31.12;43.69;99399.34;5072525;28;20511;-76
2022/07/14 07:02:25;;;;;;;11.75;5.75;;;;;;;31.54;43.52;99401.56;5054488;28;20511;-78
2022/07/14 07:07:36;;;;;;;10.05;5.85;;;;;;;32.07;41.87;99405.47;5072444;28;20079;-77
2022/07/14 07:10:04;;;;;;;7.47;5.45;;;;;;;32.25;41.63;99400.66;5070754;28;20071;-77
2022/07/14 07:12:30;;;;;;;7.85;5.55;;;;;;;32.47;41.44;99401.41;5056072;28;20465;-76
2022/07/14 07:14:56;;;;;;;11.75;6.07;;;;;;;32.59;40.74;99396.53;5071078;28;20048;-78
2022/07/14 07:17:22;;;;;;;14.90;6.50;;;;;;;32.84;40.38;99403.34;5071095;28;20143;-79
2022/07/14 07:19:48;;;;;;;9.60;5.63;;;;;;;32.53;40.72;99403.09;5020519;28;20548;-78
2022/07/14 07:22:14;;;;;;;8.20;5.18;;;;;;;32.52;40.86;99395.91;5037880;28;20051;-77
2022/07/14 07:24:40;;;;;;;8.23;5.28;;;;;;;32.94;40.10;99397.88;5054024;28;20052;-77
2022/07/14 07:27:06;;;;;;;11.15;6.13;;;;;;;33.40;39.20;99402.78;5072100;28;20373;-77
2022/07/14 07:29:32;;;;;;;10.32;5.88;;;;;;;33.59;38.78;99399.31;5037538;28;20119;-77
2022/07/14 07:31:58;;;;;;;9.80;5.80;;;;;;;33.51;38.81;99394.31;5072565;28;20163;-90
2022/07/14 07:34:24;;;;;;;12.60;5.63;;;;;;;33.64;38.67;99389.34;5037143;28;20131;-80
2022/07/14 07:36:51;;;;;;;9.18;5.38;;;;;;;33.71;38.28;99373.28;5072243;28;20135;-78
2022/07/14 07:39:17;;;;;;;12.55;5.82;;;;;;;33.55;38.41;99376.03;5072327;28;20061;-79
2022/07/14 07:41:43;;;;;;;7.28;5.20;;;;;;;33.62;38.49;99358.28;5071390;28;20048;-76
2022/07/14 07:44:09;;;;;;;19.23;5.43;;;;;;;33.99;38.21;99353.38;5041521;28;20040;-78
2022/07/14 07:46:35;;;;;;;11.63;5.40;;;;;;;34.32;37.62;99340.06;5058087;28;20037;-85
2022/07/14 07:49:00;;;;;;;9.00;5.00;;;;;;;34.52;37.43;99323.41;5057298;28;20155;-81
2022/07/14 07:51:26;;;;;;;11.02;5.50;;;;;;;34.73;37.50;99317.81;5057627;28;20067;-79
2022/07/14 07:53:52;;;;;;;9.02;5.10;;;;;;;34.95;36.82;99315.50;5058769;28;20044;-78
2022/07/14 07:56:18;;;;;;;14.98;5.80;;;;;;;35.09;36.83;99312.13;5058557;28;20078;-79
2022/07/14 07:58:44;;;;;;;14.38;5.90;;;;;;;35.27;36.20;99308.72;5025021;28;20051;-78
2022/07/14 08:01:09;;;;;;;8.25;5.32;;;;;;;35.26;36.47;99305.09;5058042;28;20542;-78
2022/07/14 08:03:35;;;;;;;10.50;5.90;;;;;;;35.06;35.14;99305.22;5078601;28;20102;-83
2022/07/14 08:06:01;;;;;;;12.52;5.72;;;;;;;34.88;36.21;99292.75;5044633;28;20042;-78
2022/07/14 08:08:27;;;;;;;10.48;5.35;;;;;;;34.48;36.32;99286.19;5095279;28;20081;-79
2022/07/14 08:10:52;;;;;;;17.80;5.88;;;;;;;34.70;36.55;99279.50;5060502;28;20040;-78
2022/07/14 08:13:18;;;;;;;9.10;5.85;;;;;;;35.04;36.74;99288.81;5077406;28;20051;-77
2022/07/14 08:15:44;;;;;;;9.35;5.72;;;;;;;35.18;35.96;99277.09;5077194;28;20050;-77
2022/07/14 08:18:10;;;;;;;14.27;5.60;;;;;;;35.33;35.92;99281.75;5095265;28;20047;-77
2022/07/14 08:20:36;;;;;;;22.15;6.65;;;;;;;35.56;35.57;99288.56;5077670;28;20059;-79
2022/07/14 08:23:02;;;;;;;11.68;6.20;;;;;;;35.19;36.11;99273.19;5060489;28;20456;-80
2022/07/14 08:25:28;;;;;;;26.60;6.93;;;;;;;34.73;36.87;99267.84;5041169;28;20072;-79
2022/07/14 08:27:54;;;;;;;20.23;6.80;;;;;;;34.87;36.95;99268.88;5040812;28;20139;-79
2022/07/14 08:30:20;;;;;;;15.95;7.43;;;;;;;34.71;37.01;99268.09;5075307;28;20048;-76
2022/07/14 08:32:51;;;;;;;32.15;8.52;;;;;;;34.85;37.23;99250.84;5075215;28;20036;-76
2022/07/14 08:35:23;;;;;;;27.45;8.82;;;;;;;35.15;36.53;99249.88;5057471;28;20047;-78
2022/07/14 08:37:49;;;;;;;25.48;8.57;;;;;;;35.05;36.66;99231.31;5050212;28;20413;-78
2022/07/14 08:40:18;;;;;;;14.57;7.32;;;;;;;34.76;37.14;99228.41;5065051;28;20052;-77
2022/07/14 08:42:46;;;;;;;20.30;8.07;;;;;;;34.71;37.27;99220.06;5075887;28;20120;-76
2022/07/14 08:45:15;;;;;;;16.33;7.72;;;;;;;34.76;36.75;99217.28;5057210;28;20048;-75
2022/07/14 08:47:43;;;;;;;19.60;7.25;;;;;;;34.47;37.41;99208.78;5041123;28;20043;-79
2022/07/14 08:50:16;;;;;;;20.88;7.15;;;;;;;34.66;37.15;99201.50;5040662;28;20052;-79
2022/07/14 08:52:43;;;;;;;21.15;7.32;;;;;;;34.44;37.14;99199.06;5075222;28;20045;-79
2022/07/14 08:55:11;;;;;;;24.30;6.23;;;;;;;34.20;37.67;99192.50;5023352;28;20049;-77
2022/07/14 08:57:38;;;;;;;;;;;;;;;34.00;37.49;99199.75;5075747;28;20283;-77
2022/07/14 09:00:08;;;;;;;13.35;5.85;;;;;;;34.41;37.07;99193.22;5085647;28;20305;-79
2022/07/14 09:02:36;;;;;;;15.45;6.40;;;;;;;34.19;37.58;99190.81;5057224;28;20514;-78
2022/07/14 09:05:03;;;;;;;12.00;6.03;;;;;;;34.52;37.42;99183.78;5007349;28;20173;-79
2022/07/14 09:07:31;;;;;;;22.85;6.50;;;;;;;35.08;36.85;99185.47;5040586;28;20040;-78
2022/07/14 09:10:01;;;;;;;6.90;5.45;;;;;;;35.36;36.32;99183.91;5074494;28;20052;-78
2022/07/14 09:12:30;;;;;;;33.10;7.25;;;;;;;35.66;35.42;99186.44;5056120;28;20033;-80
2022/07/14 09:18:01;;;;;;;9.88;5.53;;;;;;;36.01;34.58;99180.88;5056888;28;20043;-77
2022/07/14 09:20:32;;;;;;;11.70;5.72;;;;;;;35.68;35.02;99183.38;5040088;28;20053;-78
2022/07/14 09:23:00;;;;;;;10.82;5.50;;;;;;;35.70;35.37;99175.56;5040137;28;20411;-77
2022/07/14 09:25:28;;;;;;;8.93;5.57;;;;;;;35.74;35.07;99169.13;5056354;28;20048;-77
2022/07/14 09:27:54;;;;;;;;;;;;;;;35.54;35.88;99179.59;5056606;28;20044;-77
2022/07/14 09:30:23;;;;;;;12.15;5.75;;;;;;;35.54;35.82;99172.06;5056165;28;19927;-77
2022/07/14 09:32:51;;;;;;;;;;;;;;;35.60;36.07;99170.94;5056741;28;20388;-78
2022/07/14 09:35:33;;;;;;;14.13;5.90;;;;;;;35.73;36.48;99169.41;5074323;28;20416;-77
2022/07/14 09:37:59;;;;;;;10.45;6.00;;;;;;;36.01;35.87;99155.81;5055862;28;20063;-77
2022/07/14 09:40:28;;;;;;;13.85;5.50;;;;;;;36.51;34.81;99157.19;5073886;28;20487;-77
2022/07/14 09:42:57;;;;;;;13.55;5.35;;;;;;;36.87;33.19;99159.50;5056168;28;20040;-77
2022/07/14 09:45:27;;;;;;;12.05;5.97;;;;;;;37.24;33.29;99153.13;5039826;28;20450;-79
2022/07/14 09:47:59;;;;;;;12.27;5.25;;;;;;;37.60;31.70;99141.38;5039232;28;20139;-76
2022/07/14 09:50:40;;;;;;;8.80;4.47;;;;;;;37.33;31.26;99134.56;5055907;28;20053;-78
2022/07/14 09:53:11;;;;;;;7.15;4.50;;;;;;;36.71;31.93;99133.78;5056063;28;20044;-76
2022/07/14 09:55:39;;;;;;;8.95;4.88;;;;;;;36.31;32.85;99133.19;5073925;28;20098;-76
2022/07/14 09:58:10;;;;;;;20.45;4.95;;;;;;;36.36;32.84;99135.91;5073724;28;20052;-77
2022/07/14 10:00:36;;;;;;;23.52;4.95;;;;;;;36.43;32.83;99133.59;5055444;28;20135;-77
2022/07/14 10:03:05;;;;;;;10.02;5.20;;;;;;;36.42;33.09;99126.38;5073263;28;20040;-77
2022/07/14 10:05:34;;;;;;;9.73;5.03;;;;;;;36.46;32.95;99133.03;5055587;28;20043;-77
2022/07/14 10:08:05;;;;;;;6.28;4.40;;;;;;;36.20;32.99;99128.88;5072464;28;20040;-78
2022/07/14 10:10:35;;;;;;;14.82;4.35;;;;;;;35.73;34.43;99133.25;5071802;28;20052;-77
2022/07/14 10:13:04;;;;;;;7.43;4.78;;;;;;;35.63;34.76;99130.59;5055440;28;20045;-77
2022/07/14 10:15:30;;;;;;;8.23;4.65;;;;;;;35.66;35.17;99130.84;5072829;28;20102;-78
2022/07/14 10:17:59;;;;;;;11.68;4.85;;;;;;;35.81;34.67;99127.06;5073144;28;20459;-78
2022/07/14 10:20:27;;;;;;;5.60;4.50;;;;;;;35.87;34.50;99125.88;5038736;28;20117;-78
2022/07/14 10:22:55;;;;;;;7.15;4.85;;;;;;;36.17;33.49;99118.34;5072131;28;20056;-78
2022/07/14 10:25:21;;;;;;;9.40;4.60;;;;;;;36.01;34.18;99116.88;5055407;28;20053;-77
2022/07/14 10:27:48;;;;;;;13.13;4.50;;;;;;;36.20;34.01;99117.75;5038772;28;20037;-78
2022/07/14 10:30:17;;;;;;;9.02;4.38;;;;;;;36.75;33.39;99129.31;5071888;28;20040;-78
2022/07/14 10:33:08;;;;;;;4.70;4.13;;;;;;;37.16;32.96;99123.97;5038507;28;20147;-78
2022/07/14 10:35:57;;;;;;;9.38;4.55;;;;;;;37.71;32.09;99128.06;5055059;28;20044;-79
2022/07/14 10:38:39;;;;;;;10.60;4.35;;;;;;;38.12;31.23;99128.16;5054746;28;20053;-76
2022/07/14 10:41:26;;;;;;;9.93;4.32;;;;;;;38.00;31.11;99139.00;5073366;28;20076;-78
2022/07/14 10:44:07;;;;;;;7.50;4.43;;;;;;;38.01;31.44;99140.66;5021928;28;20036;-77
2022/07/14 10:46:46;;;;;;;10.10;4.65;;;;;;;37.63;32.09;99132.41;5072813;28;20041;-77
2022/07/14 10:49:14;;;;;;;8.55;4.63;;;;;;;37.45;32.24;99124.91;5038621;28;20538;-77
2022/07/14 10:51:51;;;;;;;8.30;4.43;;;;;;;37.51;32.21;99130.09;5038428;28;20047;-78
2022/07/14 10:54:27;;;;;;;8.20;4.55;;;;;;;37.69;32.24;99139.56;5038283;28;20506;-78
2022/07/14 10:57:14;;;;;;;23.45;4.63;;;;;;;37.76;31.60;99128.78;5053761;28;20037;-79
2022/07/14 10:59:41;;;;;;;;;;;;;;;37.95;31.30;99134.31;5092431;28;20067;-77
2022/07/14 11:02:15;;;;;;;7.80;4.13;;;;;;;38.43;30.61;99133.94;5041616;28;20022;-77
2022/07/14 11:05:13;;;;;;;7.97;4.50;;;;;;;38.52;29.66;99129.28;5074997;28;20048;-78
2022/07/14 11:07:40;;;;;;;8.65;3.95;;;;;;;38.12;30.48;99122.56;5052946;28;20032;-79
2022/07/14 11:10:21;;;;;;;9.57;4.60;;;;;;;38.36;29.71;99125.16;5054873;28;20135;-79
2022/07/14 11:12:59;;;;;;;17.00;4.47;;;;;;;38.59;30.31;99128.84;5072749;28;20046;-80
2022/07/14 11:15:44;;;;;;;10.65;4.40;;;;;;;39.42;28.88;99121.06;5060842;28;20515;-78
2022/07/14 11:18:26;;;;;;;7.97;4.30;;;;;;;40.36;27.33;99098.63;5043055;28;20055;-84
2022/07/14 11:20:55;;;;;;;12.00;4.68;;;;;;;40.39;26.71;99106.38;5069115;28;20044;-80
2022/07/14 11:23:24;;;;;;;9.93;4.35;;;;;;;41.26;26.65;99110.09;5081973;28;20048;-83
2022/07/14 11:25:52;;;;;;;9.25;4.05;;;;;;;42.15;24.97;99111.19;5079499;28;20084;-79
2022/07/14 11:28:50;;;;;;;10.65;4.05;;;;;;;42.22;24.35;99114.31;5087774;28;20044;-78
2022/07/14 11:31:21;;;;;;;5.63;3.22;;;;;;;42.39;23.69;99115.38;5044115;28;20040;-80
2022/07/14 11:36:34;;;;;;;;;;;;;;;42.62;22.87;99113.13;5058971;28;20435;-83
2022/07/14 11:39:15;;;;;;;6.53;3.45;;;;;;;43.11;22.59;99113.44;5058559;28;20434;-80
2022/07/14 11:41:43;;;;;;;9.38;3.28;;;;;;;43.36;22.21;99097.47;5076545;28;20047;-82
2022/07/14 11:44:40;;;;;;;13.10;3.85;;;;;;;43.62;21.93;99092.41;5043326;28;20040;-80
2022/07/14 11:47:25;;;;;;;8.27;3.28;;;;;;;43.81;21.45;99091.00;5078617;28;20176;-81
2022/07/14 11:49:57;;;;;;;12.60;4.25;;;;;;;43.82;21.46;99099.13;5059206;28;20048;-79